createdAt,value
2019-01-04T00:00:56.630Z,52.80
2019-01-04T00:03:37.943Z,52.90
2019-01-04T00:06:19.354Z,52.70
2019-01-04T00:09:00.651Z,52.50
2019-01-04T00:11:41.399Z,52.40
2019-01-04T00:14:22.747Z,52.30
2019-01-04T00:17:02.858Z,52.00
2019-01-04T00:19:51.346Z,51.90
2019-01-04T00:22:32.670Z,51.70
2019-01-04T00:25:12.322Z,51.70
2019-01-04T00:27:53.562Z,51.60
2019-01-04T00:30:32.999Z,51.90
2019-01-04T00:33:13.996Z,52.00
2019-01-04T00:35:55.549Z,52.10
2019-01-04T00:38:36.954Z,52.10
2019-01-04T00:41:18.183Z,52.20
2019-01-04T00:43:59.226Z,52.30
2019-01-04T00:46:40.564Z,52.30
2019-01-04T00:49:21.201Z,52.20
2019-01-04T00:52:02.540Z,52.00
2019-01-04T00:54:43.836Z,52.10
2019-01-04T01:00:29.643Z,51.80
2019-01-04T01:03:10.298Z,51.70
2019-01-04T01:05:51.341Z,51.80
2019-01-04T01:08:32.348Z,51.90
2019-01-04T01:11:13.194Z,51.90
2019-01-04T01:13:54.250Z,52.00
2019-01-04T01:16:35.775Z,52.10
2019-01-04T01:19:16.819Z,52.20
2019-01-04T01:21:57.967Z,52.20
2019-01-04T01:24:38.659Z,52.20
2019-01-04T01:27:19.421Z,52.30
2019-01-04T01:30:20.334Z,52.30
2019-01-04T01:33:01.718Z,52.40
2019-01-04T01:35:42.273Z,52.40
2019-01-04T01:38:23.517Z,52.50
2019-01-04T01:44:40.917Z,52.60
2019-01-04T01:47:21.570Z,52.60
2019-01-04T01:50:02.990Z,52.80
2019-01-04T01:52:44.023Z,52.80
2019-01-04T01:55:25.142Z,52.70
2019-01-04T01:58:06.512Z,52.70
2019-01-04T02:00:47.179Z,52.60
2019-01-04T02:03:28.625Z,52.60
2019-01-04T02:06:09.945Z,52.80
2019-01-04T02:08:51.199Z,53.00
2019-01-04T02:11:32.811Z,53.10
2019-01-04T02:14:12.293Z,53.30
2019-01-04T02:16:53.651Z,53.50
2019-01-04T02:19:34.721Z,53.60
2019-01-04T02:22:15.417Z,53.60
2019-01-04T02:24:56.834Z,53.80
2019-01-04T02:27:37.928Z,53.80
2019-01-04T02:30:18.927Z,53.90
2019-01-04T02:32:59.525Z,54.00
2019-01-04T02:35:41.297Z,54.00
2019-01-04T02:38:22.318Z,53.90
2019-01-04T02:41:03.694Z,54.00
2019-01-04T02:43:45.073Z,54.20
2019-01-04T02:46:26.426Z,54.30
2019-01-04T02:49:07.983Z,54.40
2019-01-04T02:51:49.093Z,54.60
2019-01-04T02:54:29.632Z,54.80
2019-01-04T02:57:10.952Z,54.80
2019-01-04T02:59:52.099Z,54.80
2019-01-04T03:02:31.652Z,54.90
2019-01-04T03:05:12.835Z,55.20
2019-01-04T03:07:54.272Z,55.50
2019-01-04T03:10:34.970Z,57.00
2019-01-04T03:13:15.571Z,58.40
2019-01-04T03:15:56.539Z,59.00
2019-01-04T03:18:37.987Z,59.40
2019-01-04T03:21:17.446Z,59.50
2019-01-04T03:24:05.833Z,59.80
2019-01-04T03:26:46.710Z,59.80
2019-01-04T03:29:28.117Z,59.70
2019-01-04T03:32:09.437Z,59.50
2019-01-04T03:34:50.403Z,59.10
2019-01-04T03:37:31.795Z,59.20
2019-01-04T03:40:12.909Z,59.40
2019-01-04T03:42:54.221Z,59.30
2019-01-04T03:45:35.036Z,59.60
2019-01-04T03:48:16.464Z,59.40
2019-01-04T03:50:57.726Z,59.40
2019-01-04T03:53:38.661Z,59.20
2019-01-04T03:56:19.249Z,59.00
2019-01-04T03:59:00.013Z,58.90
2019-01-04T04:01:40.763Z,58.80
2019-01-04T04:04:22.171Z,58.80
2019-01-04T04:07:03.441Z,58.40
2019-01-04T04:09:44.555Z,58.40
2019-01-04T04:12:25.387Z,58.60
2019-01-04T04:15:06.015Z,58.80
2019-01-04T04:17:47.546Z,58.90
2019-01-04T04:20:28.725Z,59.20
2019-01-04T04:23:09.491Z,58.50
2019-01-04T04:25:50.649Z,58.40
2019-01-04T04:28:32.066Z,58.20
2019-01-04T04:31:12.764Z,58.00
2019-01-04T04:33:53.329Z,58.00
2019-01-04T04:36:34.366Z,57.90
2019-01-04T04:39:14.867Z,57.80
2019-01-04T04:41:55.894Z,57.40
2019-01-04T04:44:37.234Z,57.00
2019-01-04T04:47:18.469Z,56.90
2019-01-04T04:49:59.917Z,56.90
2019-01-04T04:52:40.833Z,57.00
2019-01-04T04:55:21.988Z,57.10
2019-01-04T04:58:03.307Z,56.90
2019-01-04T05:00:44.630Z,56.90
2019-01-04T05:03:26.100Z,56.80
2019-01-04T05:06:07.573Z,56.50
2019-01-04T05:08:49.101Z,56.40
2019-01-04T05:11:30.407Z,56.40
2019-01-04T05:14:11.695Z,56.30
2019-01-04T05:16:52.495Z,56.40
2019-01-04T05:19:33.497Z,56.20
2019-01-04T05:22:14.866Z,56.30
2019-01-04T05:24:55.638Z,56.40
2019-01-04T05:27:36.741Z,56.40
2019-01-04T05:30:17.939Z,56.50
2019-01-04T05:32:58.575Z,56.60
2019-01-04T05:35:38.544Z,56.70
2019-01-04T05:41:27.372Z,56.80
2019-01-04T05:44:08.072Z,56.90
2019-01-04T05:46:48.977Z,56.90
2019-01-04T05:49:29.625Z,56.90
2019-01-04T05:52:10.819Z,57.20
2019-01-04T05:54:52.004Z,57.40
2019-01-04T05:57:33.478Z,57.60
2019-01-04T06:00:13.117Z,57.70
2019-01-04T06:02:52.655Z,58.00
2019-01-04T06:05:41.101Z,57.90
2019-01-04T06:08:21.997Z,57.90
2019-01-04T06:11:03.407Z,57.70
2019-01-04T06:13:44.581Z,57.80
2019-01-04T06:16:25.196Z,57.60
2019-01-04T06:19:04.599Z,57.70
2019-01-04T06:24:51.532Z,58.20
2019-01-04T06:30:39.885Z,59.30
2019-01-04T06:33:21.230Z,58.80
2019-01-04T06:36:02.538Z,58.80
2019-01-04T06:38:44.061Z,58.90
2019-01-04T06:41:24.718Z,59.10
2019-01-04T06:44:05.420Z,59.30
2019-01-04T06:46:46.954Z,59.40
2019-01-04T06:49:27.521Z,59.70
2019-01-04T06:52:08.770Z,60.00
2019-01-04T06:54:50.011Z,60.00
2019-01-04T06:57:31.063Z,59.90
2019-01-04T07:00:11.854Z,60.00
2019-01-04T07:02:53.308Z,60.40
2019-01-04T07:11:12.053Z,60.70
2019-01-04T07:13:53.226Z,62.70
2019-01-04T07:16:34.622Z,63.90
2019-01-04T07:19:15.941Z,64.60
2019-01-04T07:21:56.660Z,65.50
2019-01-04T07:24:37.267Z,66.70
2019-01-04T07:27:18.468Z,67.70
2019-01-04T07:30:00.033Z,68.00
2019-01-04T07:32:40.729Z,68.40
2019-01-04T07:35:21.725Z,69.70
2019-01-04T07:38:02.344Z,70.80
2019-01-04T07:40:41.930Z,71.40
2019-01-04T07:43:23.361Z,72.10
2019-01-04T07:46:04.738Z,72.90
2019-01-04T07:48:45.976Z,73.50
2019-01-04T07:51:26.789Z,74.20
2019-01-04T07:54:07.888Z,74.70
2019-01-04T07:56:48.405Z,75.00
2019-01-04T07:59:29.241Z,75.30
2019-01-04T08:02:09.974Z,75.20
2019-01-04T08:04:49.828Z,75.40
2019-01-04T08:07:38.237Z,75.20
2019-01-04T08:10:19.548Z,74.90
2019-01-04T08:13:01.893Z,74.90
2019-01-04T08:15:42.486Z,74.90
2019-01-04T08:18:21.869Z,74.60
2019-01-04T08:21:02.574Z,74.40
2019-01-04T08:23:44.017Z,74.00
2019-01-04T08:26:24.630Z,73.90
2019-01-04T08:29:05.901Z,73.50
2019-01-04T08:31:47.384Z,73.30
2019-01-04T08:34:28.224Z,73.10
2019-01-04T08:37:08.963Z,73.10
2019-01-04T08:39:50.293Z,73.20
2019-01-04T08:42:31.605Z,73.10
2019-01-04T08:45:13.051Z,73.10
2019-01-04T08:47:53.922Z,73.30
2019-01-04T08:50:34.950Z,73.30
2019-01-04T08:53:16.344Z,73.30
2019-01-04T08:55:57.777Z,73.70
2019-01-04T08:58:38.407Z,73.40
2019-01-04T09:01:19.798Z,73.30
2019-01-04T09:04:00.765Z,73.20
2019-01-04T09:06:41.553Z,73.10
2019-01-04T09:09:22.684Z,73.00
2019-01-04T09:12:02.577Z,73.20
2019-01-04T09:14:44.093Z,72.80
2019-01-04T09:17:25.699Z,72.60
2019-01-04T09:20:07.117Z,71.60
2019-01-04T09:22:48.415Z,71.00
2019-01-04T09:25:29.843Z,70.50
2019-01-04T09:28:10.716Z,70.60
2019-01-04T09:30:51.828Z,69.90
2019-01-04T09:33:33.109Z,69.20
2019-01-04T09:36:14.357Z,68.40
2019-01-04T09:38:55.773Z,68.00
2019-01-04T09:41:36.805Z,68.40
2019-01-04T09:44:17.908Z,69.50
2019-01-04T09:46:58.769Z,70.10
2019-01-04T09:49:39.523Z,70.30
2019-01-04T09:52:20.536Z,70.10
2019-01-04T09:55:01.083Z,70.10
2019-01-04T09:57:41.768Z,70.70
2019-01-04T10:00:21.364Z,71.30
2019-01-04T10:03:02.214Z,71.60
2019-01-04T10:05:42.874Z,71.90
2019-01-04T10:08:23.632Z,71.90
2019-01-04T10:11:04.758Z,72.00
2019-01-04T10:13:45.339Z,72.10
2019-01-04T10:16:25.821Z,72.10
2019-01-04T10:19:06.734Z,72.30
2019-01-04T10:21:47.678Z,72.60
2019-01-04T10:24:28.705Z,72.60
2019-01-04T10:27:09.877Z,73.40
2019-01-04T10:29:51.356Z,73.50
2019-01-04T10:32:32.796Z,73.50
2019-01-04T10:35:13.971Z,73.20
2019-01-04T10:37:54.477Z,73.20
2019-01-04T10:40:35.198Z,73.20
2019-01-04T10:43:16.623Z,72.70
2019-01-04T10:45:57.529Z,72.20
2019-01-04T10:48:38.119Z,71.90
2019-01-04T10:51:19.127Z,72.10
2019-01-04T10:53:59.163Z,72.60
2019-01-04T10:56:39.914Z,73.40
2019-01-04T10:59:21.358Z,73.50
2019-01-04T11:02:02.470Z,73.20
2019-01-04T11:04:43.890Z,73.00
2019-01-04T11:07:23.383Z,73.10
2019-01-04T11:13:12.113Z,72.70
2019-01-04T11:15:53.722Z,71.90
2019-01-04T11:18:34.923Z,71.90
2019-01-04T11:21:15.474Z,72.20
2019-01-04T11:23:56.370Z,72.40
2019-01-04T11:26:40.780Z,72.20
2019-01-04T11:29:21.765Z,71.80
2019-01-04T11:32:03.093Z,71.70
2019-01-04T11:34:44.471Z,71.80
2019-01-04T11:37:25.173Z,72.10
2019-01-04T11:40:06.613Z,72.10
2019-01-04T11:42:47.224Z,71.80
2019-01-04T11:45:28.282Z,71.50
2019-01-04T11:48:09.033Z,71.60
2019-01-04T11:50:50.001Z,71.60
2019-01-04T11:53:31.392Z,71.30
2019-01-04T11:56:12.493Z,71.10
2019-01-04T11:58:53.829Z,71.00
2019-01-04T12:01:34.550Z,71.00
2019-01-04T12:04:16.004Z,71.20
2019-01-04T12:06:55.633Z,71.00
2019-01-04T12:12:43.840Z,70.30
2019-01-04T12:15:24.483Z,70.30
2019-01-04T12:18:04.017Z,70.30
2019-01-04T12:23:52.660Z,69.70
2019-01-04T12:26:33.738Z,69.50
2019-01-04T12:29:15.200Z,69.70
2019-01-04T12:31:55.840Z,70.40
2019-01-04T12:34:36.559Z,69.70
2019-01-04T12:37:17.211Z,69.20
2019-01-04T12:39:57.888Z,69.10
2019-01-04T12:42:39.552Z,69.40
2019-01-04T12:45:20.983Z,69.70
2019-01-04T12:48:01.637Z,70.00
2019-01-04T12:50:41.238Z,70.10
2019-01-04T12:56:29.880Z,70.10
2019-01-04T12:59:10.515Z,70.30
2019-01-04T13:01:51.172Z,70.60
2019-01-04T13:04:30.733Z,70.60
2019-01-04T13:07:11.353Z,70.30
2019-01-04T13:09:52.021Z,69.60
2019-01-04T13:12:33.019Z,69.40
2019-01-04T13:15:13.751Z,69.60
2019-01-04T13:17:54.793Z,69.60
2019-01-04T13:20:36.028Z,69.40
2019-01-04T13:23:17.585Z,69.00
2019-01-04T13:25:58.310Z,69.00
2019-01-04T13:28:39.563Z,69.40
2019-01-04T13:31:20.985Z,69.40
2019-01-04T13:34:02.398Z,68.80
2019-01-04T13:36:43.719Z,68.30
2019-01-04T13:39:24.651Z,68.10
2019-01-04T13:42:05.239Z,67.70
2019-01-04T13:44:46.644Z,67.40
2019-01-04T13:47:32.234Z,66.90
2019-01-04T13:50:08.745Z,65.20
2019-01-04T13:52:38.090Z,65.00
2019-01-04T13:55:07.479Z,65.50
2019-01-04T13:57:55.956Z,65.00
2019-01-04T14:03:42.938Z,63.70
2019-01-04T14:09:33.366Z,64.30
2019-01-04T14:12:14.815Z,64.20
2019-01-04T14:14:54.365Z,64.10
2019-01-04T14:17:42.728Z,64.40
2019-01-04T14:20:23.606Z,65.00
2019-01-04T14:23:04.227Z,65.10
2019-01-04T14:25:45.611Z,65.00
2019-01-04T14:28:26.191Z,64.90
2019-01-04T14:31:07.087Z,65.20
2019-01-04T14:33:48.454Z,65.80
2019-01-04T14:36:29.818Z,65.90
2019-01-04T14:39:10.937Z,65.70
2019-01-04T14:41:52.448Z,65.90
2019-01-04T14:44:34.032Z,66.40
2019-01-04T14:47:14.651Z,66.50
2019-01-04T14:49:55.431Z,66.40
2019-01-04T14:52:36.975Z,66.50
2019-01-04T14:55:18.822Z,66.70
2019-01-04T14:58:00.063Z,67.40
2019-01-04T15:00:41.265Z,67.60
2019-01-04T15:03:22.672Z,67.60
2019-01-04T15:06:04.135Z,67.70
2019-01-04T15:08:44.771Z,68.20
2019-01-04T15:11:26.036Z,68.50
2019-01-04T15:14:05.577Z,68.50
2019-01-04T15:19:58.397Z,68.90
2019-01-04T15:22:39.875Z,69.20
2019-01-04T15:28:20.056Z,69.80
2019-01-04T15:31:01.144Z,70.20
2019-01-04T15:33:42.479Z,70.30
2019-01-04T15:36:24.017Z,70.60
2019-01-04T15:39:05.145Z,70.90
2019-01-04T15:41:46.677Z,70.90
2019-01-04T15:44:27.860Z,71.00
2019-01-04T15:47:09.039Z,71.00
2019-01-04T15:49:50.117Z,71.30
2019-01-04T15:52:31.606Z,71.70
2019-01-04T15:55:12.543Z,71.70
2019-01-04T16:00:33.819Z,71.70
2019-01-04T16:03:15.306Z,72.70
2019-01-04T16:11:53.730Z,72.60
2019-01-04T16:14:34.647Z,72.70
2019-01-04T16:17:15.680Z,72.50
2019-01-04T16:19:56.291Z,72.60
2019-01-04T16:22:37.635Z,73.00
2019-01-04T16:25:21.075Z,72.80
2019-01-04T16:28:02.715Z,72.60
2019-01-04T16:30:44.257Z,72.60
2019-01-04T16:33:25.826Z,72.60
2019-01-04T16:36:06.962Z,72.40
2019-01-04T16:38:47.923Z,72.30
2019-01-04T16:41:28.987Z,72.30
2019-01-04T16:44:09.735Z,72.20
2019-01-04T16:46:51.263Z,72.10
2019-01-04T16:49:37.010Z,72.00
2019-01-04T16:52:17.969Z,71.90
2019-01-04T16:54:58.611Z,71.80
2019-01-04T16:57:40.294Z,71.80
2019-01-04T17:00:21.272Z,71.70
2019-01-04T17:03:02.368Z,71.50
2019-01-04T17:05:43.765Z,71.40
2019-01-04T17:08:23.664Z,71.20
2019-01-04T17:11:04.547Z,71.00
2019-01-04T17:13:44.016Z,70.70
2019-01-04T17:16:25.168Z,70.50
2019-01-04T17:19:05.917Z,70.40
2019-01-04T17:21:46.732Z,70.30
2019-01-04T17:24:27.443Z,70.20
2019-01-04T17:27:08.615Z,70.10
2019-01-04T17:29:49.543Z,70.00
2019-01-04T17:32:29.180Z,69.80
2019-01-04T17:38:18.878Z,69.80
2019-01-04T17:40:58.449Z,69.60
2019-01-04T17:43:39.111Z,69.60
2019-01-04T17:46:18.584Z,69.50
2019-01-04T17:48:59.536Z,69.40
2019-01-04T17:51:39.415Z,69.30
2019-01-04T17:54:20.303Z,69.20
2019-01-04T17:57:00.881Z,69.00
2019-01-04T17:59:42.300Z,68.90
2019-01-04T18:02:23.719Z,68.80
2019-01-04T18:05:03.214Z,68.90
2019-01-04T18:10:51.390Z,68.80
2019-01-04T18:13:32.818Z,68.70
2019-01-04T18:16:13.507Z,68.70
2019-01-04T18:18:54.064Z,68.70
2019-01-04T18:21:34.979Z,68.60
2019-01-04T18:24:16.459Z,68.60
2019-01-04T18:26:57.845Z,68.50
2019-01-04T18:29:39.140Z,68.50
2019-01-04T18:32:20.216Z,68.40
2019-01-04T18:35:00.935Z,68.30
2019-01-04T18:37:41.979Z,68.30
2019-01-04T18:40:22.723Z,68.30
2019-01-04T18:43:03.862Z,68.20
2019-01-04T18:45:44.577Z,68.30
2019-01-04T18:48:25.665Z,68.20
2019-01-04T18:51:06.770Z,68.20
2019-01-04T18:53:48.285Z,68.30
2019-01-04T18:56:29.538Z,68.00
2019-01-04T18:59:10.363Z,68.10
2019-01-04T19:01:50.923Z,68.10
2019-01-04T19:04:37.110Z,68.10
2019-01-04T19:07:15.595Z,68.10
2019-01-04T19:09:56.863Z,68.10
2019-01-04T19:12:37.777Z,68.10
2019-01-04T19:15:18.947Z,68.00
2019-01-04T19:17:58.962Z,67.80
2019-01-04T19:20:39.719Z,67.90
2019-01-04T19:23:20.418Z,68.00
2019-01-04T19:26:01.683Z,68.00
2019-01-04T19:28:43.016Z,68.10
2019-01-04T19:31:24.142Z,68.20
2019-01-04T19:34:05.607Z,68.20
2019-01-04T19:36:46.512Z,68.20
2019-01-04T19:39:26.070Z,68.20
2019-01-04T19:42:07.016Z,68.40
2019-01-04T19:44:48.582Z,68.40
2019-01-04T19:47:29.269Z,68.30
2019-01-04T19:50:11.467Z,68.40
2019-01-04T19:52:52.260Z,68.40
2019-01-04T19:55:33.293Z,68.50
2019-01-04T19:58:13.926Z,68.50
2019-01-04T20:00:54.663Z,68.50
2019-01-04T20:03:36.142Z,68.50
2019-01-04T20:09:46.787Z,68.50
2019-01-04T20:12:46.502Z,68.50
2019-01-04T20:15:48.826Z,68.50
2019-01-04T20:18:48.415Z,68.50
2019-01-04T20:21:47.936Z,68.60
2019-01-04T20:24:47.612Z,68.70
2019-01-04T20:27:47.610Z,68.60
2019-01-04T20:30:47.238Z,68.60
2019-01-04T20:33:53.751Z,68.70
2019-01-04T20:36:57.205Z,68.70
2019-01-04T20:39:55.985Z,68.70
2019-01-04T20:43:03.281Z,68.80
2019-01-04T20:46:03.534Z,68.90
2019-01-04T20:49:03.550Z,69.00
2019-01-04T20:52:03.931Z,69.00
2019-01-04T20:55:09.482Z,69.00
2019-01-04T20:58:09.045Z,69.20
2019-01-04T21:01:08.687Z,69.20
2019-01-04T21:04:08.102Z,69.40
2019-01-04T21:07:07.613Z,69.40
2019-01-04T21:10:08.457Z,69.40
2019-01-04T21:13:08.000Z,69.50
2019-01-04T21:16:08.646Z,69.60
2019-01-04T21:19:08.639Z,69.60
2019-01-04T21:25:13.816Z,69.70
2019-01-04T21:28:14.112Z,69.70
2019-01-04T21:31:14.652Z,69.70
2019-01-04T21:34:14.678Z,69.80
2019-01-04T21:37:14.332Z,69.80
2019-01-04T21:40:17.704Z,69.80
2019-01-04T21:43:18.023Z,69.80
2019-01-04T21:46:18.320Z,69.70
2019-01-04T21:49:18.021Z,69.70
2019-01-04T21:55:34.247Z,69.80
2019-01-04T21:58:34.632Z,69.90
2019-01-04T22:01:34.190Z,69.90
2019-01-04T22:04:33.822Z,70.00
2019-01-04T22:07:33.517Z,70.00
2019-01-04T22:10:33.016Z,70.10
2019-01-04T22:19:47.353Z,70.30
2019-01-04T22:22:53.054Z,70.60
2019-01-04T22:25:53.029Z,70.70
2019-01-04T22:28:52.594Z,70.90
2019-01-04T22:31:51.563Z,70.90
2019-01-04T22:34:54.548Z,70.90
2019-01-04T22:37:54.567Z,71.00
2019-01-04T22:40:54.342Z,71.00
2019-01-04T22:43:53.884Z,71.40
2019-01-04T22:46:53.547Z,71.30
2019-01-04T22:49:53.195Z,71.30
2019-01-04T22:52:52.626Z,71.30
2019-01-04T22:55:52.933Z,71.30
2019-01-04T22:58:52.651Z,71.30
2019-01-04T23:02:00.052Z,71.40
2019-01-04T23:04:59.575Z,71.80
2019-01-04T23:08:06.919Z,72.30
2019-01-04T23:11:06.369Z,72.30
2019-01-04T23:14:11.820Z,72.50
2019-01-04T23:17:11.832Z,72.70
2019-01-04T23:20:17.445Z,73.00
2019-01-04T23:23:17.602Z,73.90
2019-01-04T23:26:19.540Z,74.10
2019-01-04T23:32:25.290Z,74.10
2019-01-04T23:38:42.438Z,74.10
2019-01-04T23:47:52.772Z,74.20
2019-01-04T23:50:53.854Z,74.00
2019-01-04T23:53:49.802Z,74.20
2019-01-04T23:56:49.382Z,74.20
